createdAt,value
2018-11-22T12:15:58.429Z,98257.25
2018-11-22T12:18:27.274Z,98250.83
2018-11-22T12:20:56.110Z,98258.02
2018-11-22T12:23:25.074Z,98262.77
2018-11-22T12:25:54.022Z,98259.27
2018-11-22T12:28:22.858Z,98270.78
2018-11-22T12:30:51.818Z,98258.07
2018-11-22T12:33:41.019Z,98258.02
2018-11-22T12:36:15.246Z,98262.22
2018-11-22T12:38:44.761Z,98263.53
2018-11-22T12:41:13.672Z,98259.94
2018-11-22T12:43:42.957Z,98255.49
2018-11-22T12:46:11.859Z,98261.89
2018-11-22T12:48:41.328Z,98267.05
2018-11-22T12:51:10.206Z,98259.12
2018-11-22T12:53:39.153Z,98264.09
2018-11-22T12:56:08.005Z,98267.45
2018-11-22T12:58:36.943Z,98271.89
2018-11-22T13:01:06.337Z,98257.80
2018-11-22T13:03:35.215Z,98256.98
2018-11-22T13:06:04.126Z,98260.00
2018-11-22T13:08:32.989Z,98252.94
2018-11-22T13:11:01.868Z,98254.34
2018-11-22T13:13:30.706Z,98259.64
2018-11-22T13:15:59.563Z,98260.45
2018-11-22T13:18:28.462Z,98264.11
2018-11-22T13:20:57.321Z,98257.47
2018-11-22T13:23:26.161Z,98262.45
2018-11-22T13:25:55.030Z,98263.62
2018-11-22T13:28:23.938Z,98268.35
2018-11-22T13:30:52.814Z,98265.30
2018-11-22T13:33:21.698Z,98268.07
2018-11-22T13:35:50.561Z,98269.42
2018-11-22T13:38:19.470Z,98265.43
2018-11-22T13:40:48.365Z,98270.94
2018-11-22T13:43:17.288Z,98273.34
2018-11-22T13:45:46.156Z,98280.41
2018-11-22T13:48:15.044Z,98275.67
2018-11-22T13:50:43.950Z,98278.13
2018-11-22T13:53:12.790Z,98277.90
2018-11-22T13:55:41.629Z,98279.71
2018-11-22T13:58:10.489Z,98283.98
2018-11-22T14:00:39.375Z,98289.51
2018-11-22T14:03:08.230Z,98285.77
2018-11-22T14:05:37.427Z,98287.13
2018-11-22T14:08:06.277Z,98283.77
2018-11-22T14:10:35.118Z,98287.78
2018-11-22T14:13:04.057Z,98293.53
2018-11-22T14:15:33.039Z,98294.73
2018-11-22T14:18:03.559Z,98291.88
2018-11-22T14:20:34.543Z,98289.27
2018-11-22T14:23:03.395Z,98287.88
2018-11-22T14:25:32.243Z,98291.00
2018-11-22T14:28:01.175Z,98297.30
2018-11-22T14:30:31.571Z,98297.55
2018-11-22T14:33:00.407Z,98297.70
2018-11-22T14:35:29.227Z,98300.15
2018-11-22T14:37:58.070Z,98298.09
2018-11-22T14:40:28.493Z,98304.84
2018-11-22T14:42:57.758Z,98304.19
2018-11-22T14:45:27.350Z,98314.64
2018-11-22T14:47:57.279Z,98308.99
2018-11-22T14:50:45.962Z,98310.84
2018-11-22T14:53:17.754Z,98313.08
2018-11-22T14:55:46.638Z,98308.62
2018-11-22T14:58:15.572Z,98313.44
2018-11-22T15:00:44.560Z,98319.55
2018-11-22T15:03:13.415Z,98321.74
2018-11-22T15:05:42.242Z,98327.73
2018-11-22T15:08:11.181Z,98333.16
2018-11-22T15:10:40.053Z,98330.64
2018-11-22T15:13:08.941Z,98330.76
2018-11-22T15:15:37.856Z,98338.84
2018-11-22T15:18:06.728Z,98343.27
2018-11-22T15:20:35.605Z,98345.96
2018-11-22T15:23:04.521Z,98346.01
2018-11-22T15:25:33.389Z,98345.67
2018-11-22T15:28:02.309Z,98351.39
2018-11-22T15:30:31.187Z,98353.04
2018-11-22T15:33:00.227Z,98355.44
2018-11-22T15:35:30.245Z,98358.98
2018-11-22T15:37:59.089Z,98351.95
2018-11-22T15:40:28.004Z,98350.92
2018-11-22T15:42:58.471Z,98355.23
2018-11-22T15:45:34.723Z,98359.64
2018-11-22T15:47:56.951Z,98357.81
2018-11-22T15:50:26.986Z,98360.19
2018-11-22T15:52:55.930Z,98360.95
2018-11-22T15:55:25.482Z,98358.88
2018-11-22T15:57:56.942Z,98360.52
2018-11-22T16:00:28.206Z,98360.66
2018-11-22T16:02:57.475Z,98356.70
2018-11-22T16:05:27.090Z,98365.78
2018-11-22T16:07:55.981Z,98368.11
2018-11-22T16:10:27.369Z,98368.98
2018-11-22T16:12:57.881Z,98365.05
2018-11-22T16:15:32.740Z,98374.39
2018-11-22T16:18:01.772Z,98376.00
2018-11-22T16:20:30.611Z,98375.45
2018-11-22T16:22:59.519Z,98372.50
2018-11-22T16:25:28.365Z,98367.73
2018-11-22T16:27:57.269Z,98369.36
2018-11-22T16:30:27.470Z,98369.14
2018-11-22T16:32:56.388Z,98372.39
2018-11-22T16:35:32.825Z,98369.95
2018-11-22T16:37:54.994Z,98370.45
2018-11-22T16:40:25.088Z,98371.84
2018-11-22T16:42:54.678Z,98370.82
2018-11-22T16:45:25.040Z,98370.64
2018-11-22T16:47:53.937Z,98359.75
2018-11-22T16:50:24.088Z,98370.86
2018-11-22T16:52:53.196Z,98360.58
2018-11-22T16:55:22.495Z,98363.06
2018-11-22T16:57:52.397Z,98365.83
2018-11-22T17:00:24.589Z,98355.05
2018-11-22T17:02:54.576Z,98355.74
2018-11-22T17:05:23.791Z,98362.41
2018-11-22T17:07:52.776Z,98350.23
2018-11-22T17:10:23.054Z,98351.77
2018-11-22T17:12:53.267Z,98358.22
2018-11-22T17:15:23.450Z,98359.27
2018-11-22T17:17:52.834Z,98359.53
2018-11-22T17:20:22.666Z,98360.26
2018-11-22T17:22:52.314Z,98368.38
2018-11-22T17:25:22.498Z,98367.39
2018-11-22T17:27:53.112Z,98362.70
2018-11-22T17:30:24.778Z,98367.00
2018-11-22T17:32:53.598Z,98365.80
2018-11-22T17:35:23.894Z,98357.45
2018-11-22T17:37:53.710Z,98363.90
2018-11-22T17:40:24.637Z,98361.67
2018-11-22T17:42:53.627Z,98360.14
2018-11-22T17:45:23.960Z,98371.69
2018-11-22T17:47:53.033Z,98372.38
2018-11-22T17:50:23.406Z,98370.53
2018-11-22T17:52:52.302Z,98367.73
2018-11-22T17:55:22.589Z,98367.66
2018-11-22T17:57:51.517Z,98367.88
2018-11-22T18:00:25.051Z,98373.48
2018-11-22T18:02:55.091Z,98374.72
2018-11-22T18:05:27.295Z,98374.90
2018-11-22T18:07:52.876Z,98376.64
2018-11-22T18:10:24.122Z,98389.12
2018-11-22T18:12:53.836Z,98377.61
2018-11-22T18:15:23.334Z,98385.15
2018-11-22T18:17:52.838Z,98380.23
2018-11-22T18:20:23.162Z,98382.09
2018-11-22T18:22:53.178Z,98377.55
2018-11-22T18:25:23.321Z,98379.28
2018-11-22T18:27:52.237Z,98373.15
2018-11-22T18:30:24.628Z,98369.20
2018-11-22T18:32:54.882Z,98370.06
2018-11-22T18:35:23.854Z,98375.48
2018-11-22T18:37:52.704Z,98369.58
2018-11-22T18:40:23.805Z,98369.48
2018-11-22T18:42:53.821Z,98373.44
2018-11-22T18:45:28.225Z,98374.27
2018-11-22T18:47:57.109Z,98374.23
2018-11-22T18:50:27.060Z,98377.22
2018-11-22T18:52:55.917Z,98373.34
2018-11-22T18:55:24.915Z,98372.22
2018-11-22T18:57:53.903Z,98376.72
2018-11-22T19:00:25.503Z,98376.98
2018-11-22T19:02:55.736Z,98370.49
2018-11-22T19:05:24.708Z,98376.09
2018-11-22T19:07:54.406Z,98378.50
2018-11-22T19:10:29.011Z,98382.73
2018-11-22T19:12:59.355Z,98373.95
2018-11-22T19:15:29.498Z,98369.27
2018-11-22T19:17:58.472Z,98377.41
2018-11-22T19:20:30.762Z,98377.19
2018-11-22T19:23:00.555Z,98377.86
2018-11-22T19:25:29.446Z,98383.84
2018-11-22T19:27:59.360Z,98395.45
2018-11-22T19:30:36.642Z,98389.49
2018-11-22T19:33:00.464Z,98392.73
2018-11-22T19:35:30.833Z,98388.09
2018-11-22T19:37:59.760Z,98390.78
2018-11-22T19:40:30.942Z,98397.48
2018-11-22T19:43:01.049Z,98393.45
2018-11-22T19:45:31.339Z,98398.11
2018-11-22T19:48:00.249Z,98395.73
2018-11-22T19:50:29.659Z,98401.12
2018-11-22T19:52:59.661Z,98397.37
2018-11-22T19:55:30.037Z,98399.77
2018-11-22T19:58:00.981Z,98396.05
2018-11-22T20:00:30.071Z,98407.37
2018-11-22T20:03:00.422Z,98410.13
2018-11-22T20:05:30.599Z,98410.67
2018-11-22T20:08:01.481Z,98403.91
2018-11-22T20:10:34.285Z,98403.02
2018-11-22T20:13:04.287Z,98406.08
2018-11-22T20:15:34.390Z,98411.52
2018-11-22T20:18:05.529Z,98413.65
2018-11-22T20:20:34.395Z,98418.66
2018-11-22T20:23:04.120Z,98416.56
2018-11-22T20:25:33.085Z,98408.84
2018-11-22T20:28:02.083Z,98408.02
2018-11-22T20:30:34.334Z,98415.53
2018-11-22T20:33:03.474Z,98414.33
2018-11-22T20:35:32.680Z,98418.16
2018-11-22T20:38:01.668Z,98419.09
2018-11-22T20:40:30.592Z,98414.08
2018-11-22T20:42:59.948Z,98417.13
2018-11-22T20:45:29.663Z,98412.81
2018-11-22T20:48:00.292Z,98418.45
2018-11-22T20:50:29.814Z,98425.80
2018-11-22T20:52:58.681Z,98430.37
2018-11-22T20:55:32.124Z,98429.02
2018-11-22T20:58:02.520Z,98430.80
2018-11-22T21:00:34.736Z,98423.94
2018-11-22T21:03:03.770Z,98419.69
2018-11-22T21:05:32.767Z,98429.06
2018-11-22T21:08:01.723Z,98425.83
2018-11-22T21:10:31.966Z,98427.70
2018-11-22T21:13:00.930Z,98431.42
2018-11-22T21:15:31.289Z,98434.38
2018-11-22T21:18:01.770Z,98430.31
2018-11-22T21:20:32.144Z,98430.10
2018-11-22T21:23:01.167Z,98433.83
2018-11-22T21:25:30.062Z,98427.33
2018-11-22T21:27:58.979Z,98426.04
2018-11-22T21:30:30.804Z,98425.49
2018-11-22T21:33:00.441Z,98431.69
2018-11-22T21:35:29.858Z,98424.19
2018-11-22T21:37:59.623Z,98421.50
2018-11-22T21:40:29.326Z,98417.52
2018-11-22T21:42:58.288Z,98422.38
2018-11-22T21:45:27.729Z,98426.95
2018-11-22T21:47:56.868Z,98422.59
2018-11-22T21:50:26.805Z,98420.23
2018-11-22T21:52:55.758Z,98423.82
2018-11-22T21:55:25.937Z,98424.15
2018-11-22T21:57:55.960Z,98420.98
2018-11-22T22:00:27.906Z,98423.19
2018-11-22T22:02:59.318Z,98425.42
2018-11-22T22:05:28.422Z,98422.45
2018-11-22T22:07:57.269Z,98428.67
2018-11-22T22:10:26.419Z,98418.19
2018-11-22T22:12:55.337Z,98422.48
2018-11-22T22:15:25.751Z,98415.55
2018-11-22T22:17:54.709Z,98420.45
2018-11-22T22:20:26.205Z,98424.53
2018-11-22T22:22:55.091Z,98418.03
2018-11-22T22:25:24.777Z,98423.72
2018-11-22T22:27:54.093Z,98419.41
2018-11-22T22:30:24.313Z,98419.41
2018-11-22T22:32:54.636Z,98422.38
2018-11-22T22:35:23.564Z,98422.36
2018-11-22T22:37:52.534Z,98427.49
2018-11-22T22:40:22.926Z,98425.34
2018-11-22T22:42:52.950Z,98427.52
2018-11-22T22:45:22.996Z,98421.35
2018-11-22T22:47:52.542Z,98423.46
2018-11-22T22:50:23.534Z,98422.69
2018-11-22T22:52:53.760Z,98422.74
2018-11-22T22:55:22.911Z,98421.14
2018-11-22T22:57:51.766Z,98424.66
2018-11-22T23:00:29.019Z,98420.77
2018-11-22T23:02:59.340Z,98425.16
2018-11-22T23:05:29.085Z,98431.04
2018-11-22T23:07:57.993Z,98432.88
2018-11-22T23:10:27.036Z,98437.88
2018-11-22T23:12:56.757Z,98440.05
2018-11-22T23:15:26.812Z,98431.97
2018-11-22T23:17:55.881Z,98431.12
2018-11-22T23:20:26.352Z,98431.69
2018-11-22T23:22:55.386Z,98433.83
2018-11-22T23:25:25.294Z,98430.66
2018-11-22T23:27:54.238Z,98433.08
2018-11-22T23:30:26.765Z,98429.61
2018-11-22T23:32:57.087Z,98432.00
2018-11-22T23:35:25.951Z,98431.18
2018-11-22T23:37:55.009Z,98432.28
2018-11-22T23:40:25.246Z,98440.81
2018-11-22T23:42:54.164Z,98438.42
2018-11-22T23:45:24.418Z,98438.14
2018-11-22T23:47:53.350Z,98427.70
2018-11-22T23:50:23.516Z,98430.37
2018-11-22T23:52:53.552Z,98434.12
2018-11-22T23:55:22.475Z,98433.87
2018-11-22T23:57:51.481Z,98435.55
